sensor_id;sensor_type;location;lat;lon;timestamp;pressure;altitude;pressure_sealevel;temperature;humidity
56604;BME280;42486;47.478;19.036;2022-12-20T00:01:33;102113.41;;;-1.79;100.00
56604;BME280;42486;47.478;19.036;2022-12-20T00:08:28;102109.19;;;-1.78;100.00
56604;BME280;42486;47.478;19.036;2022-12-20T00:11:43;102131.41;;;-1.71;100.00
56604;BME280;42486;47.478;19.036;2022-12-20T00:14:51;102136.53;;;-1.75;100.00
56604;BME280;42486;47.478;19.036;2022-12-20T00:18:12;102125.50;;;-1.58;100.00
56604;BME280;42486;47.478;19.036;2022-12-20T00:21:17;102122.13;;;-1.50;100.00
56604;BME280;42486;47.478;19.036;2022-12-20T00:24:22;102132.41;;;-1.44;100.00
56604;BME280;42486;47.478;19.036;2022-12-20T00:27:31;102136.69;;;-1.39;100.00
56604;BME280;42486;47.478;19.036;2022-12-20T00:30:54;102132.41;;;-1.41;100.00
56604;BME280;42486;47.478;19.036;2022-12-20T00:34:12;102117.97;;;-1.27;100.00
56604;BME280;42486;47.478;19.036;2022-12-20T00:37:25;102113.69;;;-1.23;100.00
56604;BME280;42486;47.478;19.036;2022-12-20T00:40:57;102113.72;;;-1.22;100.00
56604;BME280;42486;47.478;19.036;2022-12-20T00:44:05;102106.84;;;-1.27;100.00
56604;BME280;42486;47.478;19.036;2022-12-20T00:47:08;102108.56;;;-1.20;100.00
56604;BME280;42486;47.478;19.036;2022-12-20T00:50:15;102106.91;;;-1.07;100.00
56604;BME280;42486;47.478;19.036;2022-12-20T00:53:19;102093.22;;;-1.14;100.00
56604;BME280;42486;47.478;19.036;2022-12-20T00:56:27;102084.66;;;-1.13;100.00
56604;BME280;42486;47.478;19.036;2022-12-20T00:59:32;102082.91;;;-1.23;100.00
56604;BME280;42486;47.478;19.036;2022-12-20T01:02:55;102068.41;;;-1.15;100.00
56604;BME280;42486;47.478;19.036;2022-12-20T01:06:05;102082.97;;;-1.11;100.00
56604;BME280;42486;47.478;19.036;2022-12-20T01:09:09;102072.69;;;-1.19;100.00
56604;BME280;42486;47.478;19.036;2022-12-20T01:12:49;102073.50;;;-1.29;100.00
56604;BME280;42486;47.478;19.036;2022-12-20T01:15:53;102080.34;;;-1.29;100.00
56604;BME280;42486;47.478;19.036;2022-12-20T01:18:58;102075.19;;;-1.34;100.00
56604;BME280;42486;47.478;19.036;2022-12-20T01:22:33;102078.63;;;-1.35;100.00
56604;BME280;42486;47.478;19.036;2022-12-20T01:26:02;102072.62;;;-1.34;100.00
56604;BME280;42486;47.478;19.036;2022-12-20T01:29:26;102068.34;;;-1.37;100.00
56604;BME280;42486;47.478;19.036;2022-12-20T01:32:31;102067.47;;;-1.39;100.00
56604;BME280;42486;47.478;19.036;2022-12-20T01:35:56;102055.53;;;-1.37;100.00
56604;BME280;42486;47.478;19.036;2022-12-20T01:39:20;102049.53;;;-1.43;100.00
56604;BME280;42486;47.478;19.036;2022-12-20T01:42:28;102046.13;;;-1.45;100.00
56604;BME280;42486;47.478;19.036;2022-12-20T01:45:31;102043.53;;;-1.44;100.00
56604;BME280;42486;47.478;19.036;2022-12-20T01:48:41;102035.88;;;-1.38;100.00
56604;BME280;42486;47.478;19.036;2022-12-20T01:51:50;102031.59;;;-1.43;100.00
56604;BME280;42486;47.478;19.036;2022-12-20T01:55:33;102024.72;;;-1.53;100.00
56604;BME280;42486;47.478;19.036;2022-12-20T02:02:08;102020.50;;;-1.38;100.00
56604;BME280;42486;47.478;19.036;2022-12-20T02:05:16;101985.47;;;-1.39;100.00
56604;BME280;42486;47.478;19.036;2022-12-20T02:08:21;101994.00;;;-1.43;100.00
56604;BME280;42486;47.478;19.036;2022-12-20T02:15:17;101987.16;;;-1.45;100.00
56604;BME280;42486;47.478;19.036;2022-12-20T02:18:41;101988.88;;;-1.49;100.00
56604;BME280;42486;47.478;19.036;2022-12-20T02:30:09;101981.97;;;-1.70;100.00
56604;BME280;42486;47.478;19.036;2022-12-20T02:33:16;101977.66;;;-1.80;100.00
56604;BME280;42486;47.478;19.036;2022-12-20T02:36:21;101981.94;;;-1.81;100.00
56604;BME280;42486;47.478;19.036;2022-12-20T02:39:41;101984.50;;;-1.81;100.00
56604;BME280;42486;47.478;19.036;2022-12-20T02:42:58;101984.47;;;-1.88;100.00
56604;BME280;42486;47.478;19.036;2022-12-20T02:46:41;101981.00;;;-1.96;100.00
56604;BME280;42486;47.478;19.036;2022-12-20T02:50:27;101985.25;;;-1.97;100.00
56604;BME280;42486;47.478;19.036;2022-12-20T02:53:43;101982.72;;;-1.95;100.00
56604;BME280;42486;47.478;19.036;2022-12-20T02:57:17;101981.03;;;-1.90;100.00
56604;BME280;42486;47.478;19.036;2022-12-20T03:01:06;101968.25;;;-1.89;100.00
56604;BME280;42486;47.478;19.036;2022-12-20T03:04:25;101964.84;;;-1.83;100.00
56604;BME280;42486;47.478;19.036;2022-12-20T03:07:41;101954.63;;;-1.77;100.00
56604;BME280;42486;47.478;19.036;2022-12-20T03:10:59;101953.81;;;-1.58;100.00
56604;BME280;42486;47.478;19.036;2022-12-20T03:14:06;101954.66;;;-1.62;100.00
56604;BME280;42486;47.478;19.036;2022-12-20T03:24:49;101951.28;;;-1.51;100.00
56604;BME280;42486;47.478;19.036;2022-12-20T03:28:17;101937.59;;;-1.47;100.00
56604;BME280;42486;47.478;19.036;2022-12-20T03:32:07;101932.50;;;-1.49;100.00
56604;BME280;42486;47.478;19.036;2022-12-20T03:35:29;101929.91;;;-1.61;100.00
56604;BME280;42486;47.478;19.036;2022-12-20T03:38:36;101934.16;;;-1.65;100.00
56604;BME280;42486;47.478;19.036;2022-12-20T03:41:40;101935.88;;;-1.56;100.00
56604;BME280;42486;47.478;19.036;2022-12-20T03:48:51;101940.12;;;-1.61;100.00
56604;BME280;42486;47.478;19.036;2022-12-20T03:52:00;101936.69;;;-1.80;100.00
56604;BME280;42486;47.478;19.036;2022-12-20T03:55:03;101932.41;;;-1.77;100.00
56604;BME280;42486;47.478;19.036;2022-12-20T03:58:21;101940.06;;;-1.84;100.00
56604;BME280;42486;47.478;19.036;2022-12-20T04:01:31;101937.56;;;-1.75;100.00
56604;BME280;42486;47.478;19.036;2022-12-20T04:04:39;101932.44;;;-1.75;100.00
56604;BME280;42486;47.478;19.036;2022-12-20T04:07:54;101927.31;;;-1.72;100.00
56604;BME280;42486;47.478;19.036;2022-12-20T04:11:05;101929.00;;;-1.77;100.00
56604;BME280;42486;47.478;19.036;2022-12-20T04:14:37;101923.88;;;-1.74;100.00
56604;BME280;42486;47.478;19.036;2022-12-20T04:17:51;101907.69;;;-1.70;100.00
56604;BME280;42486;47.478;19.036;2022-12-20T04:24:47;101890.56;;;-1.80;100.00
56604;BME280;42486;47.478;19.036;2022-12-20T04:27:53;101882.88;;;-1.85;100.00
56604;BME280;42486;47.478;19.036;2022-12-20T04:31:03;101883.75;;;-1.75;100.00
56604;BME280;42486;47.478;19.036;2022-12-20T04:34:07;101884.63;;;-1.64;100.00
56604;BME280;42486;47.478;19.036;2022-12-20T04:37:10;101886.34;;;-1.67;100.00
56604;BME280;42486;47.478;19.036;2022-12-20T04:40:14;101884.59;;;-1.65;100.00
56604;BME280;42486;47.478;19.036;2022-12-20T04:43:32;101876.94;;;-1.64;100.00
56604;BME280;42486;47.478;19.036;2022-12-20T04:46:41;101883.78;;;-1.64;100.00
56604;BME280;42486;47.478;19.036;2022-12-20T04:49:53;101895.75;;;-1.54;100.00
56604;BME280;42486;47.478;19.036;2022-12-20T04:53:17;101891.47;;;-1.57;100.00
56604;BME280;42486;47.478;19.036;2022-12-20T04:56:40;101895.72;;;-1.57;100.00
56604;BME280;42486;47.478;19.036;2022-12-20T04:59:50;101894.00;;;-1.66;100.00
56604;BME280;42486;47.478;19.036;2022-12-20T05:09:50;101901.72;;;-1.61;100.00
56604;BME280;42486;47.478;19.036;2022-12-20T05:13:18;101905.09;;;-1.65;100.00
56604;BME280;42486;47.478;19.036;2022-12-20T05:16:39;101914.47;;;-1.70;100.00
56604;BME280;42486;47.478;19.036;2022-12-20T05:19:59;101906.78;;;-1.70;100.00
56604;BME280;42486;47.478;19.036;2022-12-20T05:23:03;101914.47;;;-1.70;100.00
56604;BME280;42486;47.478;19.036;2022-12-20T05:26:40;101910.19;;;-1.79;100.00
56604;BME280;42486;47.478;19.036;2022-12-20T05:30:05;101917.06;;;-1.78;100.00
56604;BME280;42486;47.478;19.036;2022-12-20T05:33:10;101919.59;;;-1.80;100.00
56604;BME280;42486;47.478;19.036;2022-12-20T05:36:14;101923.03;;;-1.78;100.00
56604;BME280;42486;47.478;19.036;2022-12-20T05:39:21;101927.25;;;-1.81;100.00
56604;BME280;42486;47.478;19.036;2022-12-20T05:42:42;101926.41;;;-1.85;100.00
56604;BME280;42486;47.478;19.036;2022-12-20T05:45:51;101924.66;;;-1.95;100.00
56604;BME280;42486;47.478;19.036;2022-12-20T05:49:06;101915.28;;;-1.93;100.00
56604;BME280;42486;47.478;19.036;2022-12-20T05:55:50;101916.12;;;-1.97;100.00
56604;BME280;42486;47.478;19.036;2022-12-20T05:59:07;101899.94;;;-1.87;100.00
56604;BME280;42486;47.478;19.036;2022-12-20T06:03:01;101895.69;;;-1.80;100.00
56604;BME280;42486;47.478;19.036;2022-12-20T06:13:16;101885.41;;;-1.89;100.00
56604;BME280;42486;47.478;19.036;2022-12-20T06:16:39;101876.03;;;-1.90;100.00
56604;BME280;42486;47.478;19.036;2022-12-20T06:19:43;101864.09;;;-1.82;100.00
56604;BME280;42486;47.478;19.036;2022-12-20T06:23:10;101875.16;;;-1.95;100.00
56604;BME280;42486;47.478;19.036;2022-12-20T06:26:40;101872.59;;;-1.98;100.00
56604;BME280;42486;47.478;19.036;2022-12-20T06:34:01;101872.66;;;-1.56;100.00
56604;BME280;42486;47.478;19.036;2022-12-20T06:37:45;101869.19;;;-2.02;100.00
56604;BME280;42486;47.478;19.036;2022-12-20T06:44:47;101865.75;;;-1.98;100.00
56604;BME280;42486;47.478;19.036;2022-12-20T06:48:15;101861.50;;;-1.97;100.00
56604;BME280;42486;47.478;19.036;2022-12-20T06:52:12;101864.94;;;-1.91;100.00
56604;BME280;42486;47.478;19.036;2022-12-20T06:55:12;101861.53;;;-1.76;100.00
56604;BME280;42486;47.478;19.036;2022-12-20T06:58:29;101847.88;;;-1.66;100.00
56604;BME280;42486;47.478;19.036;2022-12-20T07:01:43;101845.34;;;-1.61;100.00
56604;BME280;42486;47.478;19.036;2022-12-20T07:05:00;101841.06;;;-1.61;100.00
56604;BME280;42486;47.478;19.036;2022-12-20T07:08:13;101847.06;;;-1.48;100.00
56604;BME280;42486;47.478;19.036;2022-12-20T07:11:37;101837.66;;;-1.53;100.00
56604;BME280;42486;47.478;19.036;2022-12-20T07:14:42;101835.09;;;-1.61;100.00
56604;BME280;42486;47.478;19.036;2022-12-20T07:17:54;101845.34;;;-1.46;100.00
56604;BME280;42486;47.478;19.036;2022-12-20T07:21:12;101835.97;;;-1.48;100.00
56604;BME280;42486;47.478;19.036;2022-12-20T07:24:46;101849.63;;;-1.43;100.00
56604;BME280;42486;47.478;19.036;2022-12-20T07:27:50;101846.19;;;-1.21;100.00
56604;BME280;42486;47.478;19.036;2022-12-20T07:30:59;101852.16;;;-1.20;100.00
56604;BME280;42486;47.478;19.036;2022-12-20T07:34:15;101858.13;;;-1.12;100.00
56604;BME280;42486;47.478;19.036;2022-12-20T07:37:20;101849.56;;;-0.94;100.00
56604;BME280;42486;47.478;19.036;2022-12-20T07:40:26;101859.84;;;-0.97;100.00
56604;BME280;42486;47.478;19.036;2022-12-20T07:43:37;101864.97;;;-1.06;100.00
56604;BME280;42486;47.478;19.036;2022-12-20T07:46:43;101845.28;;;-1.01;100.00
56604;BME280;42486;47.478;19.036;2022-12-20T07:50:03;101844.41;;;-0.80;100.00
56604;BME280;42486;47.478;19.036;2022-12-20T07:53:07;101846.94;;;-0.60;100.00
56604;BME280;42486;47.478;19.036;2022-12-20T07:56:26;101844.38;;;-0.60;100.00
56604;BME280;42486;47.478;19.036;2022-12-20T07:59:42;101851.19;;;-0.56;100.00
56604;BME280;42486;47.478;19.036;2022-12-20T08:03:08;101847.69;;;-0.37;100.00
56604;BME280;42486;47.478;19.036;2022-12-20T08:06:13;101844.22;;;-0.28;100.00
56604;BME280;42486;47.478;19.036;2022-12-20T08:09:16;101834.00;;;-0.36;100.00
56604;BME280;42486;47.478;19.036;2022-12-20T08:12:21;101821.19;;;-0.43;100.00
56604;BME280;42486;47.478;19.036;2022-12-20T08:27:35;101794.84;;;-0.93;100.00
56604;BME280;42486;47.478;19.036;2022-12-20T08:31:08;101806.84;;;-1.03;100.00
56604;BME280;42486;47.478;19.036;2022-12-20T08:34:18;101808.53;;;-0.97;100.00
56604;BME280;42486;47.478;19.036;2022-12-20T08:38:01;101805.12;;;-0.90;100.00
56604;BME280;42486;47.478;19.036;2022-12-20T08:41:15;101810.97;;;-0.53;100.00
56604;BME280;42486;47.478;19.036;2022-12-20T08:44:28;101803.09;;;-0.22;100.00
56604;BME280;42486;47.478;19.036;2022-12-20T08:47:47;101803.81;;;0.05;99.25
56604;BME280;42486;47.478;19.036;2022-12-20T08:51:03;101805.53;;;-0.01;96.20
56604;BME280;42486;47.478;19.036;2022-12-20T08:54:11;101802.09;;;0.07;98.58
56604;BME280;42486;47.478;19.036;2022-12-20T08:57:37;101800.28;;;0.18;97.10
56604;BME280;42486;47.478;19.036;2022-12-20T09:01:29;101790.81;;;0.23;96.40
56604;BME280;42486;47.478;19.036;2022-12-20T09:05:02;101800.16;;;0.36;96.72
56604;BME280;42486;47.478;19.036;2022-12-20T09:08:40;101796.81;;;0.24;95.14
56604;BME280;42486;47.478;19.036;2022-12-20T09:11:51;101798.50;;;0.26;96.68
56604;BME280;42486;47.478;19.036;2022-12-20T09:15:24;101791.69;;;0.27;95.50
56604;BME280;42486;47.478;19.036;2022-12-20T09:18:29;101806.09;;;0.43;95.04
56604;BME280;42486;47.478;19.036;2022-12-20T09:21:54;101813.66;;;0.60;94.46
56604;BME280;42486;47.478;19.036;2022-12-20T09:25:46;101800.75;;;0.66;92.60
56604;BME280;42486;47.478;19.036;2022-12-20T09:29:16;101806.63;;;0.79;93.01
56604;BME280;42486;47.478;19.036;2022-12-20T09:32:32;101801.53;;;0.74;93.04
56604;BME280;42486;47.478;19.036;2022-12-20T09:35:47;101798.81;;;0.90;90.44
56604;BME280;42486;47.478;19.036;2022-12-20T09:38:56;101791.97;;;0.88;91.08
56604;BME280;42486;47.478;19.036;2022-12-20T09:42:07;101768.84;;;0.84;89.43
56604;BME280;42486;47.478;19.036;2022-12-20T09:45:27;101756.88;;;0.83;88.93
56604;BME280;42486;47.478;19.036;2022-12-20T09:48:41;101753.41;;;0.84;89.88
56604;BME280;42486;47.478;19.036;2022-12-20T09:55:30;101755.16;;;0.83;91.50
56604;BME280;42486;47.478;19.036;2022-12-20T09:59:03;101749.28;;;0.72;89.46
56604;BME280;42486;47.478;19.036;2022-12-20T10:02:12;101755.81;;;1.01;92.06
56604;BME280;42486;47.478;19.036;2022-12-20T10:05:49;101753.09;;;1.13;87.67
56604;BME280;42486;47.478;19.036;2022-12-20T10:08:58;101743.94;;;0.89;89.36
56604;BME280;42486;47.478;19.036;2022-12-20T10:16:14;101732.38;;;1.22;88.87
56604;BME280;42486;47.478;19.036;2022-12-20T10:26:17;101718.47;;;1.39;87.53
56604;BME280;42486;47.478;19.036;2022-12-20T10:29:27;101711.78;;;1.22;86.02
56604;BME280;42486;47.478;19.036;2022-12-20T10:32:32;101711.69;;;1.33;88.67
56604;BME280;42486;47.478;19.036;2022-12-20T10:35:40;101712.22;;;1.55;86.95
56604;BME280;42486;47.478;19.036;2022-12-20T10:38:48;101692.28;;;1.68;85.85
56604;BME280;42486;47.478;19.036;2022-12-20T10:41:55;101682.78;;;1.71;84.56
56604;BME280;42486;47.478;19.036;2022-12-20T10:45:02;101680.03;;;1.84;84.20
56604;BME280;42486;47.478;19.036;2022-12-20T10:51:37;101682.72;;;1.74;84.80
56604;BME280;42486;47.478;19.036;2022-12-20T10:54:43;101678.31;;;1.83;83.23
56604;BME280;42486;47.478;19.036;2022-12-20T10:57:48;101676.47;;;1.91;83.95
56604;BME280;42486;47.478;19.036;2022-12-20T11:01:04;101667.87;;;1.90;82.24
56604;BME280;42486;47.478;19.036;2022-12-20T11:04:30;101648.25;;;1.83;83.28
56604;BME280;42486;47.478;19.036;2022-12-20T11:07:58;101640.78;;;1.66;83.51
56604;BME280;42486;47.478;19.036;2022-12-20T11:11:27;101638.06;;;1.75;85.68
56604;BME280;42486;47.478;19.036;2022-12-20T11:14:38;101628.97;;;2.04;83.42
56604;BME280;42486;47.478;19.036;2022-12-20T11:17:50;101617.69;;;2.13;81.51
56604;BME280;42486;47.478;19.036;2022-12-20T11:24:41;101621.03;;;2.16;81.23
56604;BME280;42486;47.478;19.036;2022-12-20T11:27:54;101622.78;;;2.16;81.23
56604;BME280;42486;47.478;19.036;2022-12-20T11:34:22;101606.34;;;2.20;81.23
56604;BME280;42486;47.478;19.036;2022-12-20T11:38:22;101598.59;;;2.22;81.67
56604;BME280;42486;47.478;19.036;2022-12-20T11:51:46;101588.44;;;2.12;81.96
56604;BME280;42486;47.478;19.036;2022-12-20T11:55:23;101587.28;;;2.29;81.84
56604;BME280;42486;47.478;19.036;2022-12-20T12:02:26;101584.12;;;2.14;81.32
56604;BME280;42486;47.478;19.036;2022-12-20T12:05:56;101590.88;;;2.22;79.36
56604;BME280;42486;47.478;19.036;2022-12-20T12:12:43;101570.38;;;2.57;79.10
56604;BME280;42486;47.478;19.036;2022-12-20T12:16:20;101570.28;;;2.62;78.71
56604;BME280;42486;47.478;19.036;2022-12-20T12:19:28;101565.16;;;2.60;77.85
56604;BME280;42486;47.478;19.036;2022-12-20T12:22:39;101564.19;;;2.66;78.88
56604;BME280;42486;47.478;19.036;2022-12-20T12:25:51;101565.81;;;2.72;77.80
56604;BME280;42486;47.478;19.036;2022-12-20T12:29:03;101561.66;;;2.63;76.90
56604;BME280;42486;47.478;19.036;2022-12-20T12:32:23;101554.50;;;2.35;79.29
56604;BME280;42486;47.478;19.036;2022-12-20T12:42:54;101542.88;;;2.14;79.27
56604;BME280;42486;47.478;19.036;2022-12-20T12:46:15;101534.84;;;2.30;80.76
56604;BME280;42486;47.478;19.036;2022-12-20T12:49:27;101539.53;;;2.53;80.54
56604;BME280;42486;47.478;19.036;2022-12-20T12:52:54;101534.25;;;2.57;80.03
56604;BME280;42486;47.478;19.036;2022-12-20T12:59:52;101531.28;;;2.37;80.61
56604;BME280;42486;47.478;19.036;2022-12-20T13:02:57;101532.75;;;2.47;81.25
56604;BME280;42486;47.478;19.036;2022-12-20T13:15:49;101525.53;;;2.23;82.60
56604;BME280;42486;47.478;19.036;2022-12-20T13:19:16;101521.72;;;1.98;80.85
56604;BME280;42486;47.478;19.036;2022-12-20T13:22:33;101511.31;;;2.03;83.11
56604;BME280;42486;47.478;19.036;2022-12-20T13:25:45;101522.44;;;2.05;82.87
56604;BME280;42486;47.478;19.036;2022-12-20T13:28:49;101510.00;;;1.81;82.75
56604;BME280;42486;47.478;19.036;2022-12-20T13:31:52;101505.66;;;1.84;83.04
56604;BME280;42486;47.478;19.036;2022-12-20T13:34:56;101499.69;;;1.81;84.70
56604;BME280;42486;47.478;19.036;2022-12-20T13:42:33;101504.50;;;1.99;84.50
56604;BME280;42486;47.478;19.036;2022-12-20T13:45:50;101501.91;;;2.01;84.58
56604;BME280;42486;47.478;19.036;2022-12-20T13:49:03;101501.13;;;1.97;84.36
56604;BME280;42486;47.478;19.036;2022-12-20T13:55:37;101497.81;;;1.90;85.11
56604;BME280;42486;47.478;19.036;2022-12-20T13:58:48;101493.63;;;1.86;83.88
56604;BME280;42486;47.478;19.036;2022-12-20T14:01:54;101479.97;;;1.81;83.76
56604;BME280;42486;47.478;19.036;2022-12-20T14:08:35;101466.31;;;1.76;84.79
56604;BME280;42486;47.478;19.036;2022-12-20T14:11:49;101463.81;;;1.73;85.45
56604;BME280;42486;47.478;19.036;2022-12-20T14:14:55;101462.84;;;1.79;84.85
56604;BME280;42486;47.478;19.036;2022-12-20T14:18:29;101457.94;;;1.65;83.42
56604;BME280;42486;47.478;19.036;2022-12-20T14:21:29;101454.66;;;1.57;85.10
56604;BME280;42486;47.478;19.036;2022-12-20T14:24:35;101455.53;;;1.56;85.04
56604;BME280;42486;47.478;19.036;2022-12-20T14:27:41;101452.25;;;1.47;84.75
56604;BME280;42486;47.478;19.036;2022-12-20T14:30:44;101446.41;;;1.39;86.89
56604;BME280;42486;47.478;19.036;2022-12-20T14:33:48;101456.69;;;1.39;87.68
56604;BME280;42486;47.478;19.036;2022-12-20T14:37:25;101433.72;;;1.28;87.70
56604;BME280;42486;47.478;19.036;2022-12-20T14:40:30;101430.31;;;1.25;88.25
56604;BME280;42486;47.478;19.036;2022-12-20T14:43:34;101427.16;;;1.10;88.49
56604;BME280;42486;47.478;19.036;2022-12-20T14:47:12;101425.56;;;1.03;88.30
56604;BME280;42486;47.478;19.036;2022-12-20T14:50:40;101423.81;;;1.05;89.79
56604;BME280;42486;47.478;19.036;2022-12-20T14:53:54;101420.34;;;1.08;89.90
56604;BME280;42486;47.478;19.036;2022-12-20T14:56:59;101415.88;;;1.18;87.95
56604;BME280;42486;47.478;19.036;2022-12-20T15:03:17;101416.06;;;1.07;90.50
56604;BME280;42486;47.478;19.036;2022-12-20T15:06:42;101428.12;;;1.05;93.90
56604;BME280;42486;47.478;19.036;2022-12-20T15:09:47;101431.53;;;1.05;93.73
56604;BME280;42486;47.478;19.036;2022-12-20T15:12:50;101422.06;;;1.06;94.03
56604;BME280;42486;47.478;19.036;2022-12-20T15:15:59;101429.97;;;0.97;95.81
56604;BME280;42486;47.478;19.036;2022-12-20T15:19:07;101427.50;;;0.89;96.48
56604;BME280;42486;47.478;19.036;2022-12-20T15:22:15;101425.00;;;0.86;96.38
56604;BME280;42486;47.478;19.036;2022-12-20T15:25:24;101411.47;;;0.73;98.17
56604;BME280;42486;47.478;19.036;2022-12-20T15:28:31;101420.81;;;0.80;97.86
56604;BME280;42486;47.478;19.036;2022-12-20T15:31:35;101412.31;;;0.75;98.79
56604;BME280;42486;47.478;19.036;2022-12-20T15:34:39;101423.44;;;0.74;99.70
56604;BME280;42486;47.478;19.036;2022-12-20T15:37:43;101414.94;;;0.69;99.69
56604;BME280;42486;47.478;19.036;2022-12-20T15:40:52;101431.41;;;0.59;99.35
56604;BME280;42486;47.478;19.036;2022-12-20T15:44:10;101429.69;;;0.59;100.00
56604;BME280;42486;47.478;19.036;2022-12-20T15:47:17;101434.94;;;0.53;100.00
56604;BME280;42486;47.478;19.036;2022-12-20T15:50:20;101443.44;;;0.57;100.00
56604;BME280;42486;47.478;19.036;2022-12-20T15:53:29;101441.78;;;0.53;100.00
56604;BME280;42486;47.478;19.036;2022-12-20T15:56:33;101444.50;;;0.42;100.00
56604;BME280;42486;47.478;19.036;2022-12-20T15:59:37;101441.00;;;0.48;100.00
56604;BME280;42486;47.478;19.036;2022-12-20T16:03:02;101438.56;;;0.38;100.00
56604;BME280;42486;47.478;19.036;2022-12-20T16:06:10;101438.50;;;0.43;100.00
56604;BME280;42486;47.478;19.036;2022-12-20T16:09:17;101435.84;;;0.48;100.00
56604;BME280;42486;47.478;19.036;2022-12-20T16:12:29;101435.06;;;0.42;100.00
56604;BME280;42486;47.478;19.036;2022-12-20T16:15:34;101436.84;;;0.39;100.00
56604;BME280;42486;47.478;19.036;2022-12-20T16:18:38;101441.09;;;0.41;100.00
56604;BME280;42486;47.478;19.036;2022-12-20T16:21:48;101437.63;;;0.44;100.00
56604;BME280;42486;47.478;19.036;2022-12-20T16:24:52;101426.56;;;0.39;100.00
56604;BME280;42486;47.478;19.036;2022-12-20T16:27:56;101429.16;;;0.37;100.00
56604;BME280;42486;47.478;19.036;2022-12-20T16:31:10;101428.28;;;0.40;100.00
56604;BME280;42486;47.478;19.036;2022-12-20T16:34:16;101424.03;;;0.37;100.00
56604;BME280;42486;47.478;19.036;2022-12-20T16:37:20;101421.41;;;0.40;100.00
56604;BME280;42486;47.478;19.036;2022-12-20T16:40:26;101417.94;;;0.41;100.00
56604;BME280;42486;47.478;19.036;2022-12-20T16:43:30;101411.94;;;0.42;100.00
56604;BME280;42486;47.478;19.036;2022-12-20T16:46:40;101411.91;;;0.44;100.00
56604;BME280;42486;47.478;19.036;2022-12-20T16:49:44;101423.09;;;0.43;100.00
56604;BME280;42486;47.478;19.036;2022-12-20T16:52:54;101422.19;;;0.44;100.00
56604;BME280;42486;47.478;19.036;2022-12-20T16:55:58;101412.75;;;0.44;100.00
56604;BME280;42486;47.478;19.036;2022-12-20T16:59:02;101424.03;;;0.34;100.00
56604;BME280;42486;47.478;19.036;2022-12-20T17:02:27;101410.25;;;0.41;100.00
56604;BME280;42486;47.478;19.036;2022-12-20T17:05:35;101406.87;;;0.36;100.00
56604;BME280;42486;47.478;19.036;2022-12-20T17:08:40;101394.91;;;0.35;100.00
56604;BME280;42486;47.478;19.036;2022-12-20T17:12:00;101390.59;;;0.37;100.00
56604;BME280;42486;47.478;19.036;2022-12-20T17:15:15;101383.63;;;0.44;100.00
56604;BME280;42486;47.478;19.036;2022-12-20T17:18:20;101381.22;;;0.35;100.00
56604;BME280;42486;47.478;19.036;2022-12-20T17:21:39;101392.41;;;0.32;100.00
56604;BME280;42486;47.478;19.036;2022-12-20T17:25:01;101378.59;;;0.36;100.00
56604;BME280;42486;47.478;19.036;2022-12-20T17:28:05;101389.84;;;0.31;100.00
56604;BME280;42486;47.478;19.036;2022-12-20T17:31:34;101386.47;;;0.27;100.00
56604;BME280;42486;47.478;19.036;2022-12-20T17:34:42;101390.75;;;0.27;100.00
56604;BME280;42486;47.478;19.036;2022-12-20T17:37:46;101384.69;;;0.29;100.00
56604;BME280;42486;47.478;19.036;2022-12-20T17:40:49;101383.84;;;0.30;100.00
56604;BME280;42486;47.478;19.036;2022-12-20T17:43:54;101394.97;;;0.31;100.00
56604;BME280;42486;47.478;19.036;2022-12-20T17:46:58;101393.13;;;0.39;100.00
56604;BME280;42486;47.478;19.036;2022-12-20T17:50:01;101394.13;;;0.30;100.00
56604;BME280;42486;47.478;19.036;2022-12-20T17:53:05;101398.28;;;0.39;100.00
56604;BME280;42486;47.478;19.036;2022-12-20T17:56:19;101380.34;;;0.36;100.00
56604;BME280;42486;47.478;19.036;2022-12-20T17:59:24;101389.87;;;0.26;100.00
56604;BME280;42486;47.478;19.036;2022-12-20T18:02:28;101379.75;;;0.17;100.00
56604;BME280;42486;47.478;19.036;2022-12-20T18:05:34;101378.81;;;0.21;100.00
56604;BME280;42486;47.478;19.036;2022-12-20T18:08:42;101376.31;;;0.18;100.00
56604;BME280;42486;47.478;19.036;2022-12-20T18:11:46;101374.56;;;0.21;100.00
56604;BME280;42486;47.478;19.036;2022-12-20T18:14:49;101372.84;;;0.22;100.00
56604;BME280;42486;47.478;19.036;2022-12-20T18:17:53;101359.16;;;0.18;100.00
56604;BME280;42486;47.478;19.036;2022-12-20T18:21:05;101366.03;;;0.19;100.00
56604;BME280;42486;47.478;19.036;2022-12-20T18:24:12;101352.28;;;0.22;100.00
56604;BME280;42486;47.478;19.036;2022-12-20T18:27:17;101351.44;;;0.20;100.00
56604;BME280;42486;47.478;19.036;2022-12-20T18:30:22;101343.84;;;0.12;100.00
56604;BME280;42486;47.478;19.036;2022-12-20T18:33:25;101337.91;;;0.09;100.00
56604;BME280;42486;47.478;19.036;2022-12-20T18:36:34;101343.06;;;0.07;100.00
56604;BME280;42486;47.478;19.036;2022-12-20T18:39:38;101341.41;;;0.03;100.00
56604;BME280;42486;47.478;19.036;2022-12-20T18:42:41;101337.12;;;0.02;100.00
56604;BME280;42486;47.478;19.036;2022-12-20T18:45:44;101327.75;;;-0.01;100.00
56604;BME280;42486;47.478;19.036;2022-12-20T18:48:53;101322.66;;;-0.02;100.00
56604;BME280;42486;47.478;19.036;2022-12-20T18:51:58;101326.13;;;-0.06;100.00
56604;BME280;42486;47.478;19.036;2022-12-20T18:55:02;101328.72;;;-0.08;100.00
56604;BME280;42486;47.478;19.036;2022-12-20T18:58:05;101326.13;;;-0.06;100.00
56604;BME280;42486;47.478;19.036;2022-12-20T19:01:12;101320.97;;;-0.05;100.00
56604;BME280;42486;47.478;19.036;2022-12-20T19:04:15;101324.44;;;-0.09;100.00
56604;BME280;42486;47.478;19.036;2022-12-20T19:07:26;101323.66;;;-0.14;100.00